createdAt,value
2018-07-17T00:01:55.811Z,79.60
2018-07-17T00:04:24.537Z,80.20
2018-07-17T00:09:21.682Z,80.20
2018-07-17T00:11:50.311Z,80.40
2018-07-17T00:14:19.099Z,80.20
2018-07-17T00:19:17.246Z,79.30
2018-07-17T00:21:46.005Z,79.60
2018-07-17T00:27:46.244Z,78.80
2018-07-17T00:30:15.043Z,78.90
2018-07-17T00:32:43.719Z,79.00
2018-07-17T00:35:12.581Z,78.60
2018-07-17T00:37:41.363Z,79.20
2018-07-17T00:40:10.037Z,78.70
2018-07-17T00:42:38.772Z,78.10
2018-07-17T00:45:07.430Z,77.40
2018-07-17T00:47:36.118Z,77.10
2018-07-17T00:50:04.813Z,78.40
2018-07-17T00:52:33.686Z,79.40
2018-07-17T00:55:02.414Z,80.00
2018-07-17T01:00:00.096Z,78.40
2018-07-17T01:02:33.974Z,80.10
2018-07-17T01:05:07.961Z,79.40
2018-07-17T01:07:42.149Z,79.60
2018-07-17T01:10:16.459Z,80.40
2018-07-17T01:12:44.284Z,80.90
2018-07-17T01:15:22.944Z,81.00
2018-07-17T01:17:51.631Z,81.30
2018-07-17T01:20:20.407Z,80.90
2018-07-17T01:22:49.311Z,81.20
2018-07-17T01:25:18.086Z,82.20
2018-07-17T01:27:46.624Z,82.50
2018-07-17T01:30:15.779Z,82.70
2018-07-17T01:32:46.907Z,81.40
2018-07-17T01:35:15.601Z,83.20
2018-07-17T01:37:44.963Z,81.20
2018-07-17T01:40:13.661Z,82.50
2018-07-17T01:42:42.407Z,81.90
2018-07-17T01:45:11.168Z,80.90
2018-07-17T01:47:39.859Z,80.80
2018-07-17T01:50:08.674Z,80.20
2018-07-17T01:52:37.291Z,80.70
2018-07-17T01:55:05.980Z,81.00
2018-07-17T01:57:34.671Z,81.60
2018-07-17T02:00:03.410Z,82.80
2018-07-17T02:02:32.216Z,83.70
2018-07-17T02:05:00.874Z,83.90
2018-07-17T02:07:29.487Z,84.00
2018-07-17T02:09:58.242Z,84.00
2018-07-17T02:12:27.444Z,84.00
2018-07-17T02:14:56.163Z,83.90
2018-07-17T02:17:24.882Z,83.90
2018-07-17T02:19:53.585Z,84.50
2018-07-17T02:22:22.388Z,84.90
2018-07-17T02:24:51.038Z,84.90
2018-07-17T02:27:19.752Z,84.90
2018-07-17T02:29:48.304Z,85.40
2018-07-17T02:32:17.444Z,85.50
2018-07-17T02:34:46.190Z,86.20
2018-07-17T02:37:14.908Z,85.70
2018-07-17T02:39:43.746Z,86.00
2018-07-17T02:42:12.518Z,86.50
2018-07-17T02:44:41.276Z,86.90
2018-07-17T02:47:09.910Z,88.90
2018-07-17T02:49:38.874Z,87.20
2018-07-17T02:52:07.941Z,87.00
2018-07-17T02:54:37.839Z,87.10
2018-07-17T02:57:06.647Z,87.30
2018-07-17T02:59:35.410Z,86.70
2018-07-17T03:02:04.110Z,86.70
2018-07-17T03:04:33.003Z,86.80
2018-07-17T03:07:02.668Z,87.20
2018-07-17T03:09:31.294Z,86.20
2018-07-17T03:12:00.098Z,87.90
2018-07-17T03:14:28.866Z,88.00
2018-07-17T03:16:57.543Z,88.30
2018-07-17T03:19:26.379Z,88.40
2018-07-17T03:21:55.007Z,89.00
2018-07-17T03:24:23.698Z,89.40
2018-07-17T03:26:52.441Z,90.00
2018-07-17T03:29:21.214Z,89.40
2018-07-17T03:31:49.949Z,88.50
2018-07-17T03:34:18.661Z,88.30
2018-07-17T03:36:47.290Z,88.10
2018-07-17T03:39:15.947Z,87.80
2018-07-17T03:41:44.763Z,88.30
2018-07-17T03:44:13.555Z,88.30
2018-07-17T03:46:42.231Z,88.00
2018-07-17T03:49:11.482Z,87.50
2018-07-17T03:51:40.363Z,86.60
2018-07-17T03:54:09.038Z,86.10
2018-07-17T03:56:37.688Z,86.10
2018-07-17T03:59:06.312Z,85.60
2018-07-17T04:01:35.066Z,86.50
2018-07-17T04:04:04.604Z,86.00
2018-07-17T04:06:33.334Z,84.90
2018-07-17T04:09:02.106Z,84.80
2018-07-17T04:11:30.870Z,83.60
2018-07-17T04:14:05.515Z,83.60
2018-07-17T04:16:43.217Z,83.10
2018-07-17T04:19:12.251Z,82.60
2018-07-17T04:21:40.858Z,82.20
2018-07-17T04:24:09.547Z,82.30
2018-07-17T04:26:38.666Z,81.90
2018-07-17T04:29:07.358Z,81.50
2018-07-17T04:31:36.051Z,81.80
2018-07-17T04:34:04.823Z,82.70
2018-07-17T04:36:33.454Z,82.20
2018-07-17T04:39:02.181Z,81.90
2018-07-17T04:41:30.894Z,81.50
2018-07-17T04:43:59.856Z,81.50
2018-07-17T04:46:28.545Z,81.50
2018-07-17T04:48:58.084Z,81.50
2018-07-17T04:51:26.675Z,81.30
2018-07-17T04:53:56.544Z,81.40
2018-07-17T04:56:25.150Z,81.20
2018-07-17T04:58:53.894Z,80.80
2018-07-17T05:01:24.509Z,80.50
2018-07-17T05:03:53.256Z,80.00
2018-07-17T05:06:22.021Z,80.10
2018-07-17T05:08:50.792Z,80.50
2018-07-17T05:11:25.385Z,80.90
2018-07-17T05:13:59.949Z,81.00
2018-07-17T05:16:33.719Z,80.90
2018-07-17T05:19:02.610Z,80.80
2018-07-17T05:21:31.211Z,80.60
2018-07-17T05:23:59.992Z,80.00
2018-07-17T05:26:28.654Z,79.70
2018-07-17T05:28:57.286Z,80.30
2018-07-17T05:31:25.886Z,78.50
2018-07-17T05:33:54.480Z,78.50
2018-07-17T05:36:23.148Z,78.70
2018-07-17T05:38:51.875Z,78.50
2018-07-17T05:41:20.579Z,78.50
2018-07-17T05:43:49.257Z,80.20
2018-07-17T05:46:18.948Z,78.50
2018-07-17T05:48:47.578Z,78.40
2018-07-17T05:51:16.492Z,78.50
2018-07-17T05:53:45.487Z,78.90
2018-07-17T05:56:14.080Z,79.50
2018-07-17T05:58:42.854Z,79.20
2018-07-17T06:01:11.770Z,79.10
2018-07-17T06:03:40.563Z,80.10
2018-07-17T06:06:09.371Z,80.20
2018-07-17T06:08:38.188Z,81.70
2018-07-17T06:11:07.299Z,80.60
2018-07-17T06:13:36.011Z,79.90
2018-07-17T06:16:04.911Z,80.80
2018-07-17T06:18:34.170Z,80.60
2018-07-17T06:21:03.412Z,81.10
2018-07-17T06:23:32.920Z,81.30
2018-07-17T06:26:01.674Z,81.30
2018-07-17T06:28:30.430Z,81.30
2018-07-17T06:30:59.275Z,82.20
2018-07-17T06:33:29.488Z,81.20
2018-07-17T06:35:58.300Z,81.30
2018-07-17T06:38:28.067Z,81.10
2018-07-17T06:40:56.990Z,81.10
2018-07-17T06:43:25.998Z,81.30
2018-07-17T06:45:58.411Z,81.50
2018-07-17T06:48:27.232Z,81.00
2018-07-17T06:50:56.101Z,80.60
2018-07-17T06:53:24.819Z,79.50
2018-07-17T06:55:53.607Z,79.20
2018-07-17T06:58:24.139Z,79.10
2018-07-17T07:00:58.709Z,79.00
2018-07-17T07:03:35.671Z,78.00
2018-07-17T07:06:04.638Z,78.00
2018-07-17T07:08:33.468Z,77.50
2018-07-17T07:11:03.405Z,76.30
2018-07-17T07:13:32.903Z,76.10
2018-07-17T07:16:02.037Z,76.30
2018-07-17T07:18:30.767Z,76.40
2018-07-17T07:21:00.796Z,77.60
2018-07-17T07:23:30.593Z,77.90
2018-07-17T07:25:59.965Z,78.10
2018-07-17T07:28:28.594Z,78.50
2018-07-17T07:31:00.287Z,79.20
2018-07-17T07:33:28.914Z,79.20
2018-07-17T07:35:58.170Z,79.30
2018-07-17T07:38:27.333Z,79.20
2018-07-17T07:40:56.305Z,79.60
2018-07-17T07:43:25.328Z,79.40
2018-07-17T07:45:54.114Z,79.70
2018-07-17T07:48:22.873Z,80.90
2018-07-17T07:50:52.124Z,80.30
2018-07-17T07:53:20.827Z,80.20
2018-07-17T07:55:49.679Z,79.80
2018-07-17T07:58:18.419Z,79.40
2018-07-17T08:00:47.255Z,79.30
2018-07-17T08:03:16.034Z,78.80
2018-07-17T08:05:47.032Z,77.20
2018-07-17T08:08:15.894Z,76.60
2018-07-17T08:10:44.799Z,75.90
2018-07-17T08:13:13.634Z,75.60
2018-07-17T08:15:42.370Z,76.20
2018-07-17T08:18:11.531Z,76.20
2018-07-17T08:20:41.134Z,75.90
2018-07-17T08:23:09.828Z,75.90
2018-07-17T08:25:39.034Z,75.70
2018-07-17T08:28:08.266Z,75.30
2018-07-17T08:30:37.038Z,75.90
2018-07-17T08:33:05.830Z,75.70
2018-07-17T08:35:34.543Z,74.70
2018-07-17T08:38:03.256Z,74.40
2018-07-17T08:40:32.164Z,74.50
2018-07-17T08:43:01.503Z,74.40
2018-07-17T08:45:32.802Z,74.30
2018-07-17T08:48:02.769Z,72.40
2018-07-17T08:50:33.010Z,74.00
2018-07-17T08:53:02.279Z,74.20
2018-07-17T08:55:33.172Z,73.60
2018-07-17T08:58:02.295Z,73.00
2018-07-17T09:00:38.251Z,72.80
2018-07-17T09:03:14.572Z,73.50
2018-07-17T09:05:53.210Z,74.00
2018-07-17T09:08:22.179Z,72.80
2018-07-17T09:10:50.988Z,72.40
2018-07-17T09:13:19.791Z,70.00
2018-07-17T09:15:48.682Z,70.40
2018-07-17T09:18:18.416Z,70.80
2018-07-17T09:20:47.572Z,71.00
2018-07-17T09:23:16.481Z,70.90
2018-07-17T09:25:45.433Z,71.20
2018-07-17T09:28:14.756Z,71.50
2018-07-17T09:30:48.983Z,71.60
2018-07-17T09:33:17.808Z,71.20
2018-07-17T09:35:47.053Z,71.90
2018-07-17T09:38:17.398Z,71.00
2018-07-17T09:40:48.128Z,69.70
2018-07-17T09:43:16.987Z,69.90
2018-07-17T09:48:14.211Z,68.80
2018-07-17T09:50:43.018Z,68.00
2018-07-17T09:53:11.699Z,67.60
2018-07-17T09:55:40.439Z,65.50
2018-07-17T10:00:43.195Z,67.60
2018-07-17T10:03:12.241Z,67.40
2018-07-17T10:05:40.950Z,67.40
2018-07-17T10:08:09.731Z,66.60
2018-07-17T10:10:42.578Z,66.40
2018-07-17T10:13:11.346Z,66.30
2018-07-17T10:15:40.249Z,66.30
2018-07-17T10:18:08.998Z,64.90
2018-07-17T10:20:37.723Z,64.10
2018-07-17T10:23:06.418Z,63.30
2018-07-17T10:25:35.284Z,62.20
2018-07-17T10:28:06.250Z,61.00
2018-07-17T10:30:35.053Z,61.00
2018-07-17T10:33:03.770Z,60.40
2018-07-17T10:35:32.879Z,60.00
2018-07-17T10:38:01.738Z,60.10
2018-07-17T10:43:03.147Z,58.60
2018-07-17T10:45:33.912Z,58.60
2018-07-17T10:48:02.824Z,56.50
2018-07-17T10:50:43.123Z,55.20
2018-07-17T10:55:40.540Z,54.10
2018-07-17T10:58:09.311Z,52.90
2018-07-17T11:00:38.172Z,51.80
2018-07-17T11:03:06.933Z,51.60
2018-07-17T11:05:35.630Z,51.20
2018-07-17T11:08:04.347Z,52.00
2018-07-17T11:10:33.043Z,51.30
2018-07-17T11:13:01.781Z,50.90
2018-07-17T11:15:30.469Z,49.80
2018-07-17T11:17:59.215Z,51.20
2018-07-17T11:20:35.157Z,52.20
2018-07-17T11:23:09.764Z,53.70
2018-07-17T11:30:39.475Z,53.80
2018-07-17T11:35:36.756Z,53.60
2018-07-17T11:38:05.549Z,53.60
2018-07-17T11:40:34.183Z,53.60
2018-07-17T11:43:03.020Z,52.80
2018-07-17T11:45:32.076Z,52.80
2018-07-17T11:48:00.881Z,53.10
2018-07-17T11:50:29.653Z,50.50
2018-07-17T11:52:58.382Z,48.60
2018-07-17T11:55:27.201Z,47.60
2018-07-17T11:57:59.437Z,45.90
2018-07-17T12:00:28.371Z,44.30
2018-07-17T12:02:57.237Z,42.30
2018-07-17T12:05:26.089Z,40.90
2018-07-17T12:07:55.167Z,39.90
2018-07-17T12:10:23.887Z,38.90
2018-07-17T12:12:52.708Z,36.80
2018-07-17T12:15:21.859Z,36.60
2018-07-17T12:17:50.576Z,37.00
2018-07-17T12:20:19.554Z,35.10
2018-07-17T12:25:16.809Z,38.00
2018-07-17T12:27:45.581Z,39.10
2018-07-17T12:30:14.762Z,40.20
2018-07-17T12:32:43.524Z,40.50
2018-07-17T12:35:12.721Z,41.40
2018-07-17T12:37:41.605Z,42.00
2018-07-17T12:42:39.350Z,42.50
2018-07-17T12:45:08.062Z,43.30
2018-07-17T12:47:37.085Z,43.20
2018-07-17T12:52:43.226Z,39.80
2018-07-17T12:55:21.248Z,38.70
2018-07-17T12:57:50.455Z,39.50
2018-07-17T13:00:19.567Z,40.60
2018-07-17T13:05:24.156Z,50.60
2018-07-17T13:07:57.172Z,55.70
2018-07-17T13:10:30.489Z,63.10
2018-07-17T13:12:59.471Z,70.50
2018-07-17T13:15:28.217Z,73.50
2018-07-17T13:17:56.971Z,74.90
2018-07-17T13:20:25.765Z,79.60
2018-07-17T13:23:05.187Z,79.00
2018-07-17T13:25:38.241Z,82.00
2018-07-17T13:28:07.451Z,81.70
2018-07-17T13:30:38.306Z,75.70
2018-07-17T13:33:12.558Z,79.80
2018-07-17T13:35:47.579Z,79.60
2018-07-17T13:38:16.835Z,76.70
2018-07-17T13:40:45.519Z,74.40
2018-07-17T13:43:14.359Z,77.50
2018-07-17T13:48:12.182Z,76.90
2018-07-17T13:50:41.413Z,68.80
2018-07-17T13:53:10.595Z,59.20
2018-07-17T13:55:39.638Z,55.00
2018-07-17T14:00:37.481Z,48.80
2018-07-17T14:03:06.408Z,48.40
2018-07-17T14:05:35.600Z,49.40
2018-07-17T14:08:04.517Z,46.60
2018-07-17T14:10:33.273Z,45.50
2018-07-17T14:13:02.157Z,48.40
2018-07-17T14:15:31.015Z,50.80
2018-07-17T14:18:00.371Z,49.50
2018-07-17T14:20:29.434Z,50.00
2018-07-17T14:22:59.616Z,51.00
2018-07-17T14:25:28.642Z,48.50
2018-07-17T14:27:57.469Z,45.20
2018-07-17T14:30:26.158Z,39.70
2018-07-17T14:32:55.129Z,37.60
2018-07-17T14:35:23.877Z,32.40
2018-07-17T14:37:57.275Z,34.00
2018-07-17T14:40:31.145Z,30.00
2018-07-17T14:43:00.151Z,34.30
2018-07-17T14:45:28.939Z,29.50
2018-07-17T14:47:57.661Z,27.40
2018-07-17T14:50:26.705Z,27.50
2018-07-17T14:52:55.432Z,27.30
2018-07-17T14:55:25.018Z,26.60
2018-07-17T14:57:53.749Z,26.40
2018-07-17T15:02:50.889Z,26.30
2018-07-17T15:05:19.642Z,26.90
2018-07-17T15:07:48.353Z,26.40
2018-07-17T15:10:17.164Z,25.90
2018-07-17T15:15:14.333Z,26.40
2018-07-17T15:20:11.479Z,25.60
2018-07-17T15:22:40.601Z,25.60
2018-07-17T15:27:38.503Z,27.20
2018-07-17T15:30:07.598Z,26.40
2018-07-17T15:32:36.410Z,26.40
2018-07-17T15:35:05.184Z,27.00
2018-07-17T15:37:34.010Z,27.70
2018-07-17T15:40:02.714Z,28.60
2018-07-17T15:42:31.400Z,29.10
2018-07-17T15:45:00.081Z,30.30
2018-07-17T15:47:28.837Z,30.80
2018-07-17T15:49:57.648Z,31.30
2018-07-17T15:52:26.270Z,31.80
2018-07-17T15:54:54.962Z,32.20
2018-07-17T15:57:23.682Z,32.20
2018-07-17T16:04:53.724Z,33.40
2018-07-17T16:07:27.144Z,33.60
2018-07-17T16:09:55.970Z,33.20
2018-07-17T16:12:24.647Z,34.10
2018-07-17T16:14:53.332Z,33.90
2018-07-17T16:17:22.077Z,33.60
2018-07-17T16:19:50.855Z,34.20
2018-07-17T16:22:19.551Z,34.40
2018-07-17T16:24:48.239Z,34.70
2018-07-17T16:27:16.913Z,34.90
2018-07-17T16:29:45.647Z,34.80
2018-07-17T16:34:43.172Z,34.90
2018-07-17T16:37:11.974Z,35.00
2018-07-17T16:39:40.668Z,35.20
2018-07-17T16:42:09.854Z,35.00
2018-07-17T16:44:39.586Z,35.30
2018-07-17T16:47:08.451Z,35.00
2018-07-17T16:49:37.585Z,35.60
2018-07-17T16:52:06.247Z,35.30
2018-07-17T16:54:39.265Z,35.30
2018-07-17T16:57:15.656Z,35.30
2018-07-17T16:59:50.653Z,35.30
2018-07-17T17:02:19.678Z,35.50
2018-07-17T17:04:48.642Z,35.30
2018-07-17T17:07:17.319Z,35.80
2018-07-17T17:09:51.579Z,35.90
2018-07-17T17:17:17.659Z,36.30
2018-07-17T17:19:46.285Z,36.30
2018-07-17T17:22:15.223Z,36.30
2018-07-17T17:27:12.827Z,36.20
2018-07-17T17:29:41.562Z,37.50
2018-07-17T17:32:10.406Z,36.60
2018-07-17T17:34:39.069Z,36.60
2018-07-17T17:39:36.222Z,37.10
2018-07-17T17:42:04.922Z,37.60
2018-07-17T17:44:33.567Z,37.40
2018-07-17T17:47:02.429Z,37.40
2018-07-17T17:49:31.272Z,37.70
2018-07-17T17:52:00.110Z,38.20
2018-07-17T17:54:29.027Z,38.80
2018-07-17T17:56:57.782Z,38.40
2018-07-17T17:59:26.544Z,38.80
2018-07-17T18:01:57.112Z,38.90
2018-07-17T18:04:26.235Z,39.30
2018-07-17T18:06:55.070Z,39.50
2018-07-17T18:11:57.789Z,39.90
2018-07-17T18:14:26.643Z,40.00
2018-07-17T18:16:55.454Z,40.20
2018-07-17T18:19:24.292Z,39.30
2018-07-17T18:21:52.992Z,40.60
2018-07-17T18:24:21.673Z,40.70
2018-07-17T18:26:50.486Z,40.70
2018-07-17T18:29:20.890Z,41.00
2018-07-17T18:34:23.097Z,41.40
2018-07-17T18:36:56.580Z,41.70
2018-07-17T18:41:55.413Z,43.50
2018-07-17T18:44:24.212Z,42.30
2018-07-17T18:46:52.899Z,42.60
2018-07-17T18:49:21.701Z,42.80
2018-07-17T18:51:50.571Z,43.20
2018-07-17T18:54:19.340Z,42.90
2018-07-17T18:56:49.221Z,43.50
2018-07-17T18:59:18.677Z,43.50
2018-07-17T19:01:47.433Z,43.30
2018-07-17T19:04:16.279Z,42.80
2018-07-17T19:06:45.037Z,42.90
2018-07-17T19:09:14.074Z,42.80
2018-07-17T19:14:11.230Z,43.50
2018-07-17T19:16:39.921Z,43.70
2018-07-17T19:19:10.487Z,43.60
2018-07-17T19:21:39.192Z,43.90
2018-07-17T19:24:08.168Z,44.10
2018-07-17T19:26:36.935Z,44.20
2018-07-17T19:34:03.014Z,45.20
2018-07-17T19:39:00.568Z,46.10
2018-07-17T19:41:29.260Z,45.90
2018-07-17T19:43:58.018Z,45.50
2018-07-17T19:46:26.704Z,45.50
2018-07-17T19:48:55.513Z,45.70
2018-07-17T19:51:24.402Z,46.00
2018-07-17T19:53:53.027Z,46.60
2018-07-17T19:56:21.803Z,47.10
2018-07-17T19:58:50.988Z,47.40
2018-07-17T20:01:19.932Z,46.90
2018-07-17T20:03:49.025Z,47.40
2018-07-17T20:06:17.796Z,47.40
2018-07-17T20:11:15.042Z,47.90
2018-07-17T20:13:43.802Z,47.20
2018-07-17T20:16:12.520Z,48.20
2018-07-17T20:18:41.243Z,48.70
2018-07-17T20:26:06.751Z,49.10
2018-07-17T20:28:36.777Z,49.10
2018-07-17T20:31:05.490Z,49.00
2018-07-17T20:36:02.790Z,48.90
2018-07-17T20:38:31.540Z,49.70
2018-07-17T20:41:00.310Z,50.00
2018-07-17T20:43:29.975Z,50.30
2018-07-17T20:45:58.839Z,50.40
2018-07-17T20:50:56.076Z,51.20
2018-07-17T20:53:24.970Z,51.40
2018-07-17T20:55:56.285Z,51.60
2018-07-17T20:58:24.975Z,51.70
2018-07-17T21:00:53.748Z,51.90
2018-07-17T21:03:22.750Z,52.10
2018-07-17T21:05:51.675Z,52.20
2018-07-17T21:08:20.799Z,52.50
2018-07-17T21:10:49.447Z,52.70
2018-07-17T21:13:18.461Z,52.90
2018-07-17T21:15:47.162Z,52.20
2018-07-17T21:18:16.905Z,53.10
2018-07-17T21:23:23.313Z,53.40
2018-07-17T21:25:52.241Z,53.50
2018-07-17T21:28:20.922Z,53.60
2018-07-17T21:30:49.599Z,53.80
2018-07-17T21:33:18.828Z,54.00
2018-07-17T21:35:47.519Z,54.20
2018-07-17T21:38:16.201Z,54.20
2018-07-17T21:40:44.956Z,54.50
2018-07-17T21:43:14.042Z,54.40
2018-07-17T21:45:42.945Z,54.20
2018-07-17T21:48:11.670Z,54.90
2018-07-17T21:50:41.329Z,54.20
2018-07-17T21:55:38.474Z,53.90
2018-07-17T21:58:07.392Z,54.80
2018-07-17T22:00:36.316Z,54.30
2018-07-17T22:03:07.938Z,54.20
2018-07-17T22:05:37.001Z,53.80
2018-07-17T22:08:05.831Z,53.90
2018-07-17T22:10:34.680Z,53.80
2018-07-17T22:13:03.443Z,54.00
2018-07-17T22:15:32.317Z,53.80
2018-07-17T22:18:01.187Z,53.60
2018-07-17T22:22:58.404Z,54.20
2018-07-17T22:25:27.279Z,54.00
2018-07-17T22:27:56.112Z,54.30
2018-07-17T22:30:24.874Z,54.00
2018-07-17T22:32:56.458Z,54.40
2018-07-17T22:35:25.332Z,54.20
2018-07-17T22:37:54.160Z,54.10
2018-07-17T22:40:22.891Z,54.30
2018-07-17T22:42:51.719Z,54.00
2018-07-17T22:45:20.446Z,54.50
2018-07-17T22:47:49.190Z,54.10
2018-07-17T22:50:17.971Z,53.90
2018-07-17T22:52:46.882Z,54.30
2018-07-17T22:55:15.637Z,54.30
2018-07-17T22:57:45.333Z,55.30
2018-07-17T23:00:14.318Z,54.60
2018-07-17T23:02:43.087Z,54.60
2018-07-17T23:05:11.902Z,54.80
2018-07-17T23:10:09.245Z,55.90
2018-07-17T23:12:38.081Z,55.30
2018-07-17T23:15:07.065Z,55.20
2018-07-17T23:20:04.664Z,55.20
2018-07-17T23:25:07.400Z,55.50
2018-07-17T23:27:36.255Z,55.40
2018-07-17T23:32:33.668Z,55.40
2018-07-17T23:35:02.435Z,55.40
2018-07-17T23:37:32.035Z,55.60
2018-07-17T23:42:29.220Z,55.50
2018-07-17T23:47:26.431Z,55.90
2018-07-17T23:49:55.868Z,56.20
2018-07-17T23:52:24.560Z,56.30
2018-07-17T23:57:22.775Z,56.90
